createdAt,value
2017-12-11T00:03:22.272Z,66.30
2017-12-11T00:08:51.377Z,67.30
2017-12-11T00:14:19.502Z,66.50
2017-12-11T00:19:47.622Z,66.70
2017-12-11T00:25:15.745Z,66.60
2017-12-11T00:30:43.880Z,66.80
2017-12-11T00:36:12.022Z,66.90
2017-12-11T00:41:40.945Z,67.00
2017-12-11T00:47:09.078Z,67.00
2017-12-11T00:52:38.226Z,67.20
2017-12-11T00:58:18.357Z,67.30
2017-12-11T01:03:46.504Z,67.30
2017-12-11T01:09:14.648Z,67.40
2017-12-11T01:14:42.782Z,67.50
2017-12-11T01:20:10.907Z,67.60
2017-12-11T01:25:39.803Z,68.70
2017-12-11T01:31:07.942Z,68.00
2017-12-11T01:36:36.082Z,68.20
2017-12-11T01:42:05.233Z,68.50
2017-12-11T01:47:34.151Z,68.70
2017-12-11T01:53:03.211Z,68.90
2017-12-11T01:58:32.131Z,69.30
2017-12-11T02:04:01.218Z,69.40
2017-12-11T02:09:29.349Z,69.60
2017-12-11T02:20:57.875Z,70.00
2017-12-11T02:26:26.016Z,70.10
2017-12-11T02:31:54.162Z,70.40
2017-12-11T02:37:23.059Z,70.70
2017-12-11T02:42:51.200Z,70.70
2017-12-11T02:48:19.344Z,70.90
2017-12-11T02:53:48.526Z,71.10
2017-12-11T02:59:20.280Z,71.00
2017-12-11T03:04:48.428Z,71.10
2017-12-11T03:10:16.570Z,71.20
2017-12-11T03:15:49.765Z,71.30
2017-12-11T03:21:18.672Z,71.60
2017-12-11T03:26:46.817Z,71.60
2017-12-11T03:32:16.883Z,71.70
2017-12-11T03:37:45.019Z,72.40
2017-12-11T03:43:13.928Z,71.90
2017-12-11T03:48:42.981Z,71.80
2017-12-11T03:54:11.111Z,71.90
2017-12-11T03:59:40.002Z,71.80
2017-12-11T04:05:08.135Z,71.80
2017-12-11T04:10:39.473Z,71.60
2017-12-11T04:16:08.380Z,71.40
2017-12-11T04:21:37.433Z,71.40
2017-12-11T04:27:05.572Z,71.50
2017-12-11T04:32:34.818Z,71.30
2017-12-11T04:38:02.952Z,71.20
2017-12-11T04:43:31.857Z,71.10
2017-12-11T04:49:00.072Z,71.00
2017-12-11T04:54:29.114Z,71.00
2017-12-11T04:59:57.268Z,71.00
2017-12-11T05:05:26.172Z,70.90
2017-12-11T05:10:54.330Z,71.60
2017-12-11T05:16:22.463Z,70.90
2017-12-11T05:21:52.594Z,70.70
2017-12-11T05:27:20.754Z,70.40
2017-12-11T05:32:50.002Z,69.70
2017-12-11T05:38:18.153Z,69.80
2017-12-11T05:43:46.305Z,69.80
2017-12-11T05:49:15.208Z,68.90
2017-12-11T05:54:47.056Z,69.50
2017-12-11T06:00:15.961Z,69.20
2017-12-11T06:05:45.247Z,69.30
2017-12-11T06:11:15.223Z,69.00
2017-12-11T06:16:43.360Z,69.00
2017-12-11T06:22:12.357Z,68.80
2017-12-11T06:27:40.475Z,68.70
2017-12-11T06:33:12.881Z,68.70
2017-12-11T06:38:41.038Z,68.70
2017-12-11T06:44:09.176Z,68.50
2017-12-11T06:49:37.381Z,68.30
2017-12-11T06:55:05.512Z,68.20
2017-12-11T07:00:33.659Z,68.30
2017-12-11T07:06:01.813Z,68.20
2017-12-11T07:11:29.976Z,68.10
2017-12-11T07:16:58.131Z,68.30
2017-12-11T07:22:26.330Z,68.10
2017-12-11T07:27:54.477Z,68.10
2017-12-11T07:33:22.622Z,68.10
2017-12-11T07:38:51.574Z,68.10
2017-12-11T07:44:19.711Z,67.90
2017-12-11T07:49:49.854Z,68.70
2017-12-11T07:55:19.441Z,67.90
2017-12-11T08:00:47.570Z,67.90
2017-12-11T08:06:15.714Z,67.80
2017-12-11T08:11:43.846Z,67.80
2017-12-11T08:17:11.988Z,67.70
2017-12-11T08:22:40.153Z,67.70
2017-12-11T08:28:08.309Z,67.60
2017-12-11T08:33:36.432Z,67.60
2017-12-11T08:39:05.336Z,68.00
2017-12-11T08:44:33.490Z,67.50
2017-12-11T08:50:02.407Z,67.50
2017-12-11T08:55:30.572Z,67.40
2017-12-11T09:00:58.710Z,67.40
2017-12-11T09:06:26.858Z,67.40
2017-12-11T09:11:55.460Z,67.30
2017-12-11T09:17:23.603Z,67.20
2017-12-11T09:22:51.745Z,67.30
2017-12-11T09:28:19.892Z,67.30
2017-12-11T09:33:48.817Z,67.20
2017-12-11T09:39:16.955Z,67.10
2017-12-11T09:44:45.139Z,67.10
2017-12-11T09:50:13.290Z,66.80
2017-12-11T09:55:41.475Z,66.80
2017-12-11T10:01:09.611Z,66.70
2017-12-11T10:06:38.760Z,66.60
2017-12-11T10:12:08.432Z,67.10
2017-12-11T10:17:37.347Z,66.90
2017-12-11T10:23:05.489Z,66.30
2017-12-11T10:28:34.394Z,66.20
2017-12-11T10:34:02.539Z,66.20
2017-12-11T10:39:31.447Z,66.10
2017-12-11T10:44:59.587Z,65.90
2017-12-11T10:50:27.719Z,65.90
2017-12-11T10:55:56.685Z,65.80
2017-12-11T11:01:24.810Z,65.70
2017-12-11T11:06:52.946Z,65.80
2017-12-11T11:12:21.124Z,65.60
2017-12-11T11:17:49.289Z,65.70
2017-12-11T11:23:17.441Z,65.70
2017-12-11T11:28:45.621Z,65.60
2017-12-11T11:34:13.720Z,65.70
2017-12-11T11:39:41.867Z,65.90
2017-12-11T11:45:10.015Z,65.80
2017-12-11T11:50:38.160Z,65.90
2017-12-11T11:56:07.081Z,66.20
2017-12-11T12:01:35.214Z,66.20
2017-12-11T12:07:04.136Z,66.20
2017-12-11T12:12:32.270Z,66.20
2017-12-11T12:18:00.433Z,66.20
2017-12-11T12:23:28.596Z,66.20
2017-12-11T12:28:56.743Z,66.30
2017-12-11T12:34:25.688Z,66.30
2017-12-11T12:39:54.972Z,66.30
2017-12-11T12:45:23.106Z,66.20
2017-12-11T12:50:52.248Z,66.30
2017-12-11T12:56:20.385Z,66.30
2017-12-11T13:01:49.278Z,66.40
2017-12-11T13:07:17.428Z,66.30
2017-12-11T13:12:46.339Z,67.00
2017-12-11T13:18:14.472Z,66.50
2017-12-11T13:23:42.818Z,66.50
2017-12-11T13:29:11.738Z,66.50
2017-12-11T13:34:39.917Z,66.40
2017-12-11T13:40:08.065Z,66.50
2017-12-11T13:45:36.212Z,66.50
2017-12-11T13:51:04.345Z,66.40
2017-12-11T13:56:33.256Z,66.20
2017-12-11T14:02:01.399Z,66.20
2017-12-11T14:07:32.280Z,66.30
2017-12-11T14:13:01.191Z,66.40
2017-12-11T14:18:29.326Z,66.90
2017-12-11T14:23:58.278Z,66.30
2017-12-11T14:29:27.203Z,66.20
2017-12-11T14:34:55.335Z,66.20
2017-12-11T14:40:25.169Z,66.20
2017-12-11T14:45:53.314Z,66.10
2017-12-11T14:51:22.225Z,65.80
2017-12-11T14:56:50.380Z,65.80
2017-12-11T15:02:18.520Z,65.60
2017-12-11T15:07:46.675Z,65.60
2017-12-11T15:13:14.838Z,65.40
2017-12-11T15:18:42.981Z,65.60
2017-12-11T15:24:11.123Z,65.60
2017-12-11T15:29:39.262Z,65.60
2017-12-11T15:35:08.096Z,65.60
2017-12-11T15:40:36.280Z,65.40
2017-12-11T15:46:04.401Z,65.20
2017-12-11T15:51:32.752Z,65.00
2017-12-11T15:57:01.700Z,65.00
2017-12-11T16:02:30.753Z,64.90
2017-12-11T16:07:58.911Z,65.10
2017-12-11T16:13:27.098Z,65.80
2017-12-11T16:18:55.307Z,65.00
2017-12-11T16:24:24.220Z,64.90
2017-12-11T16:29:52.362Z,64.50
2017-12-11T16:35:20.520Z,64.20
2017-12-11T16:40:48.669Z,63.50
2017-12-11T16:46:16.828Z,62.90
2017-12-11T16:51:45.010Z,63.00
2017-12-11T16:57:13.183Z,63.20
2017-12-11T17:02:42.085Z,63.30
2017-12-11T17:08:10.255Z,63.30
2017-12-11T17:13:38.404Z,63.40
2017-12-11T17:19:06.555Z,63.60
2017-12-11T17:24:35.280Z,63.80
2017-12-11T17:30:03.424Z,64.00
2017-12-11T17:35:31.581Z,64.20
2017-12-11T17:41:00.036Z,64.40
2017-12-11T17:46:28.766Z,64.50
2017-12-11T17:51:58.099Z,64.90
2017-12-11T17:57:26.420Z,65.10
2017-12-11T18:02:54.613Z,65.40
2017-12-11T18:08:22.795Z,65.70
2017-12-11T18:13:51.066Z,66.00
2017-12-11T18:19:19.271Z,66.30
2017-12-11T18:24:48.332Z,66.60
2017-12-11T18:30:17.243Z,67.00
2017-12-11T18:35:46.191Z,67.00
2017-12-11T18:41:15.115Z,66.90
2017-12-11T18:46:43.254Z,66.90
2017-12-11T18:52:11.400Z,67.10
2017-12-11T18:57:39.543Z,67.20
2017-12-11T19:03:07.690Z,67.20
2017-12-11T19:08:35.833Z,67.40
2017-12-11T19:14:05.695Z,67.50
2017-12-11T19:19:33.863Z,67.50
2017-12-11T19:25:02.037Z,67.50
2017-12-11T19:30:31.835Z,67.70
2017-12-11T19:36:00.005Z,67.60
2017-12-11T19:41:28.273Z,67.80
2017-12-11T19:46:56.406Z,67.90
2017-12-11T19:52:24.550Z,68.00
2017-12-11T19:57:54.764Z,68.10
2017-12-11T20:03:22.969Z,68.10
2017-12-11T20:08:51.111Z,68.10
2017-12-11T20:14:21.295Z,68.20
2017-12-11T20:19:49.548Z,68.40
2017-12-11T20:25:18.607Z,68.70
2017-12-11T20:30:48.366Z,69.00
2017-12-11T20:36:17.406Z,69.00
2017-12-11T20:41:46.334Z,69.30
2017-12-11T20:47:15.373Z,69.60
2017-12-11T20:52:44.310Z,69.60
2017-12-11T20:58:12.493Z,69.60
2017-12-11T21:03:41.589Z,69.80
2017-12-11T21:09:10.507Z,70.00
2017-12-11T21:14:39.610Z,70.00
2017-12-11T21:20:08.733Z,70.10
2017-12-11T21:25:36.889Z,70.10
2017-12-11T21:31:05.164Z,70.30
2017-12-11T21:36:33.307Z,70.40
2017-12-11T21:42:01.440Z,70.30
2017-12-11T21:47:29.587Z,70.40
2017-12-11T21:52:57.750Z,70.40
2017-12-11T21:58:26.012Z,70.40
2017-12-11T22:03:59.461Z,70.60
2017-12-11T22:09:29.594Z,70.80
2017-12-11T22:14:59.300Z,71.10
2017-12-11T22:20:27.499Z,71.40
2017-12-11T22:25:55.676Z,72.10
2017-12-11T22:31:25.499Z,72.70
2017-12-11T22:36:53.679Z,72.70
2017-12-11T22:42:23.838Z,73.20
2017-12-11T22:47:51.998Z,73.70
2017-12-11T22:53:20.258Z,74.30
2017-12-11T22:58:48.416Z,74.90
2017-12-11T23:04:16.589Z,75.10
2017-12-11T23:09:44.743Z,75.30
2017-12-11T23:15:13.644Z,76.00
2017-12-11T23:20:47.734Z,75.90
2017-12-11T23:26:15.885Z,76.20
2017-12-11T23:31:45.009Z,76.60
2017-12-11T23:37:13.158Z,76.90
2017-12-11T23:42:41.309Z,77.00
2017-12-11T23:48:11.196Z,77.30
2017-12-11T23:53:40.115Z,77.70
2017-12-11T23:59:08.251Z,77.70
